Time;durP1;ratioP1;P1;durP2;ratioP2;P2;SDS_P1;SDS_P2;PMS_P1;PMS_P2;Temp;Humidity;BMP_temperature;BMP_pressure;BME280_temperature;BME280_humidity;BME280_pressure;Samples;Min_cycle;Max_cycle;Signal;HPM_P1;HPM_P2
2021/11/25 00:01:16;;;;;;;68.13;31.27;;;;;;;9.65;68.01;100968.41;4998909;28;20407;-64
2021/11/25 00:04:01;;;;;;;133.00;65.07;;;;;;;9.63;67.21;100959.75;4998825;28;20051;-65
2021/11/25 00:06:46;;;;;;;75.60;36.13;;;;;;;9.62;68.29;100958.13;4995302;28;20049;-63
2021/11/25 00:09:31;;;;;;;102.50;51.38;;;;;;;9.65;71.25;100952.09;4998767;28;20046;-63
2021/11/25 00:12:16;;;;;;;415.55;191.63;;;;;;;9.65;72.05;100947.47;4995436;28;20043;-63
2021/11/25 00:15:01;;;;;;;82.28;43.78;;;;;;;9.58;68.68;100946.28;4993603;28;20054;-63
2021/11/25 00:17:47;;;;;;;342.00;146.15;;;;;;;9.59;70.56;100935.13;4992558;28;20049;-63
2021/11/25 00:20:32;;;;;;;285.20;126.70;;;;;;;9.56;68.89;100937.59;4979159;28;20488;-62
2021/11/25 00:23:17;;;;;;;367.38;182.80;;;;;;;9.72;78.60;100947.06;4990588;28;20038;-63
2021/11/25 00:26:02;;;;;;;;;;;;;;;9.78;82.39;100938.50;4997551;28;20046;-63
2021/11/25 00:28:46;;;;;;;488.65;245.23;;;;;;;9.79;83.73;100942.03;4995482;28;20282;-63
2021/11/25 00:31:33;;;;;;;196.95;113.93;;;;;;;9.71;81.60;100938.09;4998657;28;20054;-63
2021/11/25 00:34:18;;;;;;;432.95;215.18;;;;;;;9.71;81.92;100923.72;4998364;28;20484;-63
2021/11/25 00:37:03;;;;;;;274.33;118.07;;;;;;;9.60;76.75;100923.13;5002665;23;20082;-75
2021/11/25 00:39:49;;;;;;;259.15;119.95;;;;;;;9.58;73.67;100919.13;4995227;28;20054;-76
2021/11/25 00:42:34;;;;;;;98.47;56.95;;;;;;;9.53;72.11;100919.22;4985479;28;20038;-75
2021/11/25 00:45:19;;;;;;;68.43;35.03;;;;;;;9.48;69.13;100924.75;4993527;28;20489;-76
2021/11/25 00:48:04;;;;;;;65.45;31.70;;;;;;;9.38;68.40;100918.44;4979660;28;20042;-76
2021/11/25 00:50:49;;;;;;;146.82;71.25;;;;;;;9.40;69.93;100924.34;4994186;28;20057;-75
2021/11/25 00:53:34;;;;;;;138.18;65.65;;;;;;;9.36;68.40;100923.34;4972620;28;20046;-76
2021/11/25 00:56:18;;;;;;;330.92;159.85;;;;;;;9.39;70.86;100930.91;4981566;28;20047;-75
2021/11/25 00:59:03;;;;;;;464.95;230.38;;;;;;;9.41;72.95;100936.81;4977280;28;20043;-75
2021/11/25 01:01:48;;;;;;;85.13;43.88;;;;;;;9.35;71.13;100932.59;4991233;28;20046;-75
2021/11/25 01:04:33;;;;;;;66.95;32.13;;;;;;;9.31;69.57;100926.16;4983986;28;20053;-75
2021/11/25 01:07:18;;;;;;;77.90;34.58;;;;;;;9.32;68.99;100930.50;4986771;28;20039;-75
2021/11/25 01:10:05;;;;;;;166.35;72.68;;;;;;;9.36;73.16;100927.97;4994028;28;20050;-75
2021/11/25 01:12:51;;;;;;;148.65;66.88;;;;;;;9.33;73.73;100923.16;5000724;28;20047;-75
2021/11/25 01:15:37;;;;;;;382.65;182.23;;;;;;;9.34;73.47;100913.91;4999025;28;20050;-76
2021/11/25 01:18:22;;;;;;;419.38;198.85;;;;;;;9.38;75.96;100915.72;4980315;28;20046;-77
2021/11/25 01:21:07;;;;;;;338.15;168.63;;;;;;;9.36;76.45;100914.41;4981106;28;20046;-79
2021/11/25 01:23:52;;;;;;;157.57;76.18;;;;;;;9.38;77.98;100914.91;4992918;28;20043;-78
2021/11/25 01:26:37;;;;;;;288.77;132.80;;;;;;;9.32;75.42;100900.63;4991445;28;20042;-77
2021/11/25 01:29:22;;;;;;;312.77;148.80;;;;;;;9.28;72.59;100899.63;4976766;28;20494;-79
2021/11/25 01:32:07;;;;;;;138.68;68.22;;;;;;;9.33;74.61;100883.25;4979557;28;20054;-76
2021/11/25 01:34:52;;;;;;;148.50;67.43;;;;;;;9.29;73.67;100871.41;4977859;28;20051;-79
2021/11/25 01:37:38;;;;;;;123.68;56.40;;;;;;;9.29;72.40;100865.97;4975738;28;20509;-77
2021/11/25 01:40:23;;;;;;;121.03;56.15;;;;;;;9.19;68.53;100851.81;4979501;28;20425;-76
2021/11/25 01:43:09;;;;;;;118.50;53.80;;;;;;;9.22;70.97;100838.44;4978306;28;20035;-78
2021/11/25 01:45:56;;;;;;;284.88;129.98;;;;;;;9.23;72.37;100829.19;4975624;28;20055;-76
2021/11/25 01:48:42;;;;;;;444.23;222.07;;;;;;;9.27;76.26;100832.91;4976930;28;20035;-77
2021/11/25 01:51:27;;;;;;;216.85;106.03;;;;;;;9.22;74.46;100833.00;4977275;28;20051;-76
2021/11/25 01:54:12;;;;;;;291.92;133.75;;;;;;;9.23;73.89;100831.91;4981735;28;20502;-77
2021/11/25 01:56:57;;;;;;;148.45;69.43;;;;;;;9.23;73.02;100831.91;4979497;28;20046;-76
2021/11/25 01:59:42;;;;;;;255.43;116.15;;;;;;;9.24;73.96;100830.00;4977925;28;20047;-76
2021/11/25 02:02:27;;;;;;;344.10;169.43;;;;;;;9.28;76.48;100826.38;4975723;28;20047;-76
2021/11/25 02:05:12;;;;;;;534.22;272.92;;;;;;;9.36;79.26;100814.78;4980172;28;20046;-78
2021/11/25 02:07:58;;;;;;;455.95;239.55;;;;;;;9.44;82.57;100826.84;4976167;28;20047;-77
2021/11/25 02:10:47;;;;;;;546.35;296.45;;;;;;;9.50;84.34;100822.91;4976725;28;20417;-78
2021/11/25 02:13:32;;;;;;;572.83;306.63;;;;;;;9.49;85.13;100817.78;4979769;28;20046;-76
2021/11/25 02:16:17;;;;;;;438.92;231.85;;;;;;;9.51;86.34;100818.28;4986265;28;20042;-77
2021/11/25 02:19:02;;;;;;;435.17;237.50;;;;;;;9.54;86.93;100812.25;4986183;28;20046;-77
2021/11/25 02:21:47;;;;;;;580.28;315.23;;;;;;;9.56;87.85;100808.13;4999091;28;20404;-76
2021/11/25 02:24:32;;;;;;;518.60;276.83;;;;;;;9.51;86.81;100800.09;4997402;28;20489;-76
2021/11/25 02:27:19;;;;;;;298.85;139.80;;;;;;;9.51;86.15;100797.38;4994806;28;20042;-77
2021/11/25 02:30:06;;;;;;;245.82;115.65;;;;;;;9.47;85.26;100792.84;4998848;28;20420;-78
2021/11/25 02:32:52;;;;;;;437.48;222.75;;;;;;;9.47;84.85;100795.56;4997530;28;20042;-77
2021/11/25 02:35:39;;;;;;;527.78;280.08;;;;;;;9.47;85.15;100793.66;4995187;28;20133;-77
2021/11/25 02:38:24;;;;;;;396.35;197.52;;;;;;;9.50;86.88;100803.13;4996267;28;20050;-76
2021/11/25 02:41:10;;;;;;;534.67;281.50;;;;;;;9.46;86.55;100808.34;4997186;28;20050;-78
2021/11/25 02:43:56;;;;;;;396.60;209.80;;;;;;;9.39;85.16;100808.78;4995872;28;20046;-76
2021/11/25 02:46:41;;;;;;;510.92;272.90;;;;;;;9.42;86.20;100807.34;5000717;28;20046;-79
2021/11/25 02:49:26;;;;;;;377.85;195.93;;;;;;;9.48;88.50;100806.13;4997838;28;20046;-78
2021/11/25 02:52:10;;;;;;;260.60;120.28;;;;;;;9.42;88.56;100791.88;4995863;28;20054;-76
2021/11/25 02:54:55;;;;;;;208.20;101.32;;;;;;;9.35;84.77;100790.66;5000206;28;20038;-80
2021/11/25 02:57:40;;;;;;;370.42;178.18;;;;;;;9.34;82.43;100770.91;4998228;28;20053;-78
2021/11/25 03:00:25;;;;;;;384.90;209.55;;;;;;;9.49;85.75;100760.78;4995836;28;20050;-77
2021/11/25 03:03:12;;;;;;;439.27;226.25;;;;;;;9.55;87.27;100756.84;4975084;28;20039;-77
2021/11/25 03:05:57;;;;;;;225.65;109.30;;;;;;;9.42;83.66;100743.00;4977599;28;20109;-78
2021/11/25 03:08:43;;;;;;;143.02;66.38;;;;;;;9.34;78.96;100737.53;4975440;28;20050;-78
2021/11/25 03:11:29;;;;;;;153.48;71.30;;;;;;;9.23;74.85;100728.81;4978578;28;20509;-78
2021/11/25 03:14:14;;;;;;;398.70;181.82;;;;;;;9.25;77.64;100729.28;4976197;28;20517;-78
2021/11/25 03:16:59;;;;;;;354.38;172.50;;;;;;;9.28;78.96;100730.59;4974358;28;20042;-77
2021/11/25 03:19:44;;;;;;;122.93;60.10;;;;;;;9.27;79.03;100745.28;4978285;28;20054;-78
2021/11/25 03:22:29;;;;;;;353.52;177.55;;;;;;;9.23;77.59;100747.00;4977008;28;20437;-77
2021/11/25 03:25:13;;;;;;;536.75;291.30;;;;;;;9.37;83.69;100736.91;4984813;28;20046;-77
2021/11/25 03:27:58;;;;;;;;;;;;;;;9.42;85.79;100736.78;4997039;28;20042;-77
2021/11/25 03:30:43;;;;;;;541.40;283.67;;;;;;;9.41;86.16;100733.25;4996184;28;20296;-77
2021/11/25 03:33:30;;;;;;;182.27;85.60;;;;;;;9.39;86.00;100731.97;4988941;28;20047;-79
2021/11/25 03:36:15;;;;;;;461.77;235.27;;;;;;;9.35;85.09;100726.34;4998006;28;20389;-78
2021/11/25 03:39:00;;;;;;;329.85;172.35;;;;;;;9.27;82.48;100721.66;4985283;28;20047;-78
2021/11/25 03:41:45;;;;;;;205.00;93.32;;;;;;;9.27;80.65;100718.94;4994707;28;20054;-78
2021/11/25 03:44:30;;;;;;;179.68;88.32;;;;;;;9.25;80.80;100715.72;4997927;28;20034;-77
2021/11/25 03:47:15;;;;;;;172.52;86.00;;;;;;;9.27;79.55;100718.94;4988010;28;20038;-78
2021/11/25 03:50:00;;;;;;;404.60;185.55;;;;;;;9.31;81.23;100706.38;4986964;28;20043;-78
2021/11/25 03:52:45;;;;;;;608.55;239.77;;;;;;;9.33;82.75;100706.88;5000156;28;20424;-81
2021/11/25 03:55:30;;;;;;;356.23;115.85;;;;;;;9.34;83.22;100716.63;4992127;28;20677;-79
2021/11/25 03:58:16;;;;;;;464.17;150.43;;;;;;;9.34;82.99;100713.09;4975507;28;20047;-79
2021/11/25 04:01:01;;;;;;;194.18;64.22;;;;;;;9.32;81.94;100709.88;4979451;28;20047;-79
2021/11/25 04:03:46;;;;;;;251.55;74.95;;;;;;;9.33;81.66;100704.16;4977136;28;20043;-78
2021/11/25 04:06:30;;;;;;;235.82;80.35;;;;;;;9.40;84.91;100706.41;4988213;28;20509;-78
2021/11/25 04:09:15;;;;;;;256.90;84.50;;;;;;;9.44;86.72;100702.81;4995158;28;20460;-79
2021/11/25 04:12:00;;;;;;;175.98;57.42;;;;;;;9.47;88.08;100706.00;4993971;28;20042;-79
2021/11/25 04:14:45;;;;;;;199.13;66.47;;;;;;;9.48;88.36;100702.19;4997673;28;20050;-79
2021/11/25 04:17:30;;;;;;;74.53;29.77;;;;;;;9.43;87.35;100705.81;4979146;28;20513;-77
2021/11/25 04:20:15;;;;;;;146.30;44.55;;;;;;;9.39;86.51;100700.22;4982122;28;20047;-78
2021/11/25 04:23:01;;;;;;;;;;;;;;;9.38;85.86;100703.22;4981272;28;20043;-79
2021/11/25 04:25:45;;;;;;;59.47;22.38;;;;;;;9.35;84.92;100699.22;4976812;28;19914;-79
2021/11/25 04:28:30;;;;;;;60.95;24.20;;;;;;;9.35;84.44;100677.50;4979357;28;20050;-78
2021/11/25 04:37:22;;;;;;;58.63;20.35;;;;;;;9.33;81.25;100658.03;4979665;28;20058;-77
2021/11/25 04:40:08;;;;;;;28.73;12.70;;;;;;;9.31;80.37;100654.81;4993254;28;20045;-76
2021/11/25 04:42:52;;;;;;;55.42;24.05;;;;;;;9.29;79.79;100656.25;5000289;28;20416;-76
2021/11/25 04:45:39;;;;;;;62.47;25.55;;;;;;;9.32;80.19;100661.84;4987560;28;20047;-76
2021/11/25 04:48:26;;;;;;;64.82;25.27;;;;;;;9.31;80.39;100659.44;4985293;28;20050;-76
2021/11/25 04:51:13;;;;;;;17.08;9.35;;;;;;;9.26;79.05;100662.25;4989893;28;20130;-77
2021/11/25 04:53:59;;;;;;;9.63;6.15;;;;;;;9.09;73.67;100664.84;4991804;28;20527;-76
2021/11/25 04:56:43;;;;;;;17.48;8.60;;;;;;;9.02;71.39;100662.56;4992460;28;20061;-78
2021/11/25 04:59:27;;;;;;;21.63;8.27;;;;;;;9.12;77.35;100661.50;4967046;28;20050;-76
2021/11/25 05:02:12;;;;;;;15.07;7.13;;;;;;;9.13;78.01;100663.94;4982501;28;20046;-76
2021/11/25 05:04:57;;;;;;;15.38;7.82;;;;;;;9.11;77.33;100668.03;4958108;28;20050;-76
2021/11/25 05:07:43;;;;;;;35.70;13.07;;;;;;;9.11;77.49;100668.84;4979073;28;20045;-76
2021/11/25 05:10:27;;;;;;;17.45;7.85;;;;;;;9.11;77.41;100666.13;4963209;28;20058;-77
2021/11/25 05:13:12;;;;;;;12.20;7.07;;;;;;;9.09;75.57;100668.38;4984595;28;20042;-76
2021/11/25 05:15:58;;;;;;;29.15;12.20;;;;;;;9.13;77.43;100658.50;4987737;28;20069;-75
2021/11/25 05:18:43;;;;;;;37.65;17.45;;;;;;;9.13;78.53;100658.50;4992484;28;20057;-75
2021/11/25 05:21:28;;;;;;;28.05;12.70;;;;;;;9.19;80.80;100651.06;4973699;28;20062;-77
2021/11/25 05:24:15;;;;;;;19.33;10.02;;;;;;;9.18;81.56;100655.66;4993873;28;20404;-76
2021/11/25 05:27:00;;;;;;;35.08;16.23;;;;;;;9.16;79.88;100652.47;4989509;28;20046;-75
2021/11/25 05:29:45;;;;;;;33.47;13.30;;;;;;;9.19;81.18;100641.00;4983226;28;20042;-76
2021/11/25 05:32:29;;;;;;;17.38;8.77;;;;;;;9.20;81.76;100647.22;4982170;28;20057;-76
2021/11/25 05:35:15;;;;;;;33.20;14.80;;;;;;;9.23;82.59;100649.31;4980471;28;20069;-76
2021/11/25 05:38:00;;;;;;;18.40;9.77;;;;;;;9.22;83.35;100645.81;4977305;28;20289;-76
2021/11/25 05:40:45;;;;;;;15.13;7.25;;;;;;;9.13;80.57;100644.94;4974927;28;20057;-77
2021/11/25 05:43:30;;;;;;;20.27;10.45;;;;;;;9.21;82.25;100644.19;4979310;28;20162;-77
2021/11/25 05:46:14;;;;;;;16.10;10.43;;;;;;;9.24;84.36;100646.31;4977386;28;20050;-76
2021/11/25 05:48:59;;;;;;;21.55;9.10;;;;;;;9.25;83.97;100644.38;4979516;28;20046;-76
2021/11/25 05:51:44;;;;;;;19.05;9.85;;;;;;;9.20;82.90;100645.31;4976970;28;20062;-76
2021/11/25 05:54:31;;;;;;;25.15;11.85;;;;;;;9.29;85.23;100637.25;4976310;28;20069;-76
2021/11/25 05:57:15;;;;;;;26.55;11.85;;;;;;;9.32;86.36;100626.56;4977546;28;20046;-75
2021/11/25 06:00:01;;;;;;;28.35;10.35;;;;;;;9.35;87.35;100638.69;4993010;28;20038;-77
2021/11/25 06:02:47;;;;;;;18.13;9.32;;;;;;;9.36;87.76;100638.41;4987963;28;20053;-76
2021/11/25 06:05:32;;;;;;;21.58;11.75;;;;;;;9.36;88.40;100624.84;4983982;28;20050;-76
2021/11/25 06:08:16;;;;;;;23.83;9.90;;;;;;;9.41;89.13;100627.41;4979041;28;20042;-77
2021/11/25 06:11:02;;;;;;;22.25;11.35;;;;;;;9.35;89.02;100628.66;4980509;28;20058;-75
2021/11/25 06:13:46;;;;;;;28.38;11.23;;;;;;;9.38;89.29;100628.06;4978001;28;20429;-75
2021/11/25 06:16:31;;;;;;;34.83;11.63;;;;;;;9.37;89.28;100622.94;4986872;28;20046;-75
2021/11/25 06:19:15;;;;;;;26.55;12.15;;;;;;;9.40;89.81;100622.28;4981532;28;20039;-76
2021/11/25 06:22:00;;;;;;;31.52;10.30;;;;;;;9.36;89.04;100618.59;4989910;28;20054;-76
2021/11/25 06:24:45;;;;;;;21.45;8.13;;;;;;;9.37;88.88;100618.31;4970458;28;20068;-76
2021/11/25 06:27:29;;;;;;;19.35;9.85;;;;;;;9.37;88.56;100618.31;4987611;28;20049;-78
2021/11/25 06:30:15;;;;;;;18.60;8.55;;;;;;;9.38;88.86;100625.34;4975720;28;20867;-78
2021/11/25 06:32:59;;;;;;;21.42;10.82;;;;;;;9.40;88.36;100619.56;4979643;28;20058;-78
2021/11/25 06:35:45;;;;;;;14.88;8.52;;;;;;;9.36;87.15;100618.59;4979570;28;20054;-78
2021/11/25 06:38:30;;;;;;;18.60;10.38;;;;;;;9.37;86.96;100618.31;5009892;23;20415;-63
2021/11/25 06:41:15;;;;;;;25.38;8.82;;;;;;;9.40;86.72;100622.28;4996692;28;20046;-63
2021/11/25 06:44:00;;;;;;;22.85;9.23;;;;;;;9.44;87.61;100617.88;4994437;28;20061;-63
2021/11/25 06:46:45;;;;;;;24.65;8.38;;;;;;;9.44;87.41;100620.59;4996985;28;20053;-62
2021/11/25 06:49:30;;;;;;;27.67;9.13;;;;;;;9.44;87.21;100621.41;4996834;28;20053;-63
2021/11/25 06:52:15;;;;;;;20.95;7.90;;;;;;;9.45;87.17;100619.44;5000297;28;20069;-63
2021/11/25 06:55:00;;;;;;;25.08;12.60;;;;;;;9.44;87.76;100621.41;5000258;28;20049;-63
2021/11/25 06:57:50;;;;;;;26.50;10.35;;;;;;;9.43;86.83;100625.22;4994388;28;20049;-63
2021/11/25 07:00:35;;;;;;;25.08;10.13;;;;;;;9.46;87.49;100623.78;5000135;28;20045;-63
2021/11/25 07:03:20;;;;;;;16.90;7.43;;;;;;;9.44;86.88;100626.81;4993168;28;20491;-63
2021/11/25 07:06:05;;;;;;;18.05;7.15;;;;;;;9.46;87.18;100629.19;4995758;28;20056;-63
2021/11/25 07:08:50;;;;;;;18.00;8.38;;;;;;;9.41;86.12;100619.28;4985468;28;20065;-63
2021/11/25 07:11:35;;;;;;;21.15;7.68;;;;;;;9.42;85.58;100615.47;4993913;28;20058;-63
2021/11/25 07:14:20;;;;;;;18.63;8.43;;;;;;;9.44;86.13;100609.72;4980220;28;20058;-63
2021/11/25 07:17:05;;;;;;;19.33;7.03;;;;;;;9.49;87.09;100608.81;4975333;28;20078;-63
2021/11/25 07:19:50;;;;;;;18.67;8.48;;;;;;;9.50;87.54;100611.19;4973967;28;20046;-63
2021/11/25 07:22:35;;;;;;;26.05;5.47;;;;;;;8.52;70.57;100602.13;4980291;28;20057;-67
2021/11/25 07:25:22;;;;;;;9.68;6.55;;;;;;;8.15;67.43;100603.13;4980147;28;20049;-63
2021/11/25 07:28:06;;;;;;;17.92;9.93;;;;;;;7.70;70.02;100604.81;4979509;28;20054;-62
2021/11/25 07:30:52;;;;;;;19.98;9.05;;;;;;;7.53;68.07;100605.38;4988237;28;20399;-63
2021/11/25 07:33:37;;;;;;;18.40;8.75;;;;;;;7.76;66.17;100603.63;4994182;28;20065;-63
2021/11/25 07:36:23;;;;;;;17.13;8.32;;;;;;;7.78;64.99;100598.69;4990210;28;20069;-62
2021/11/25 07:39:08;;;;;;;16.15;8.35;;;;;;;7.83;64.01;100597.78;4991987;28;20415;-62
2021/11/25 07:41:53;;;;;;;12.43;5.03;;;;;;;7.85;65.08;100596.41;4988664;28;20049;-62
2021/11/25 07:44:38;;;;;;;14.43;5.97;;;;;;;7.77;64.97;100590.91;4987242;28;20045;-62
2021/11/25 07:47:31;;;;;;;17.90;5.93;;;;;;;7.84;64.53;100594.00;4985871;28;20580;-62
2021/11/25 07:50:19;;;;;;;17.23;7.10;;;;;;;7.83;64.73;100592.38;4994832;28;20411;-62
2021/11/25 07:53:04;;;;;;;13.45;6.97;;;;;;;7.79;65.11;100591.38;4995438;28;20058;-64
2021/11/25 07:55:49;;;;;;;16.88;5.43;;;;;;;7.86;68.68;100589.09;4979140;28;20073;-64
2021/11/25 07:58:34;;;;;;;9.63;5.13;;;;;;;7.90;71.09;100588.19;4979861;28;20045;-63
2021/11/25 08:01:19;;;;;;;19.42;5.03;;;;;;;8.02;72.92;100585.00;4979823;28;20057;-64
2021/11/25 08:04:04;;;;;;;16.75;5.28;;;;;;;8.12;75.07;100584.78;4979771;28;20115;-64
2021/11/25 08:06:49;;;;;;;14.15;4.53;;;;;;;8.20;75.77;100583.25;4976633;28;20431;-64
2021/11/25 08:09:34;;;;;;;11.25;4.97;;;;;;;8.27;76.41;100589.91;4979636;28;20062;-64
2021/11/25 08:12:19;;;;;;;17.10;5.40;;;;;;;8.33;76.76;100583.28;4979752;28;20054;-64
2021/11/25 08:15:05;;;;;;;12.32;5.63;;;;;;;8.39;76.73;100573.94;4979599;28;20061;-64
2021/11/25 08:17:50;;;;;;;22.60;6.53;;;;;;;8.45;77.77;100567.31;4973550;28;20074;-64
2021/11/25 08:20:35;;;;;;;14.35;5.25;;;;;;;8.49;78.20;100571.00;4979851;28;20053;-64
2021/11/25 08:23:20;;;;;;;16.80;6.57;;;;;;;8.56;79.38;100573.31;4979561;28;20118;-63
2021/11/25 08:26:06;;;;;;;12.77;5.18;;;;;;;8.62;80.13;100568.56;4978384;28;20277;-64
2021/11/25 08:28:51;;;;;;;17.60;6.88;;;;;;;8.58;76.32;100563.75;4979457;28;20049;-64
2021/11/25 08:31:36;;;;;;;11.85;5.60;;;;;;;8.60;73.02;100558.03;4979394;28;20045;-63
2021/11/25 08:34:23;;;;;;;14.65;7.28;;;;;;;8.60;71.01;100558.03;4979441;28;20049;-64
2021/11/25 08:37:08;;;;;;;13.38;7.20;;;;;;;8.62;70.45;100549.59;4975268;28;20065;-64
2021/11/25 08:39:53;;;;;;;13.27;5.22;;;;;;;8.65;69.39;100557.13;4990717;28;20057;-64
2021/11/25 08:42:38;;;;;;;9.68;5.20;;;;;;;8.68;69.38;100556.53;4998818;28;20050;-64
2021/11/25 08:45:23;;;;;;;19.63;7.55;;;;;;;8.67;68.50;100552.19;4998726;28;20060;-64
2021/11/25 08:48:08;;;;;;;13.48;5.32;;;;;;;8.65;68.34;100557.91;4998841;28;20041;-64
2021/11/25 08:50:53;;;;;;;9.05;5.00;;;;;;;8.68;67.73;100549.19;4998881;28;20419;-63
2021/11/25 08:53:38;;;;;;;18.25;4.90;;;;;;;8.70;67.57;100546.16;4999027;28;20045;-64
2021/11/25 08:56:23;;;;;;;14.77;6.70;;;;;;;8.71;68.04;100564.84;4996532;28;20065;-64
2021/11/25 08:59:08;;;;;;;13.20;4.13;;;;;;;8.76;71.79;100561.19;4994171;28;20045;-64
2021/11/25 09:01:53;;;;;;;9.57;4.55;;;;;;;8.71;70.44;100564.03;5018962;28;20422;-64
2021/11/25 09:04:38;;;;;;;11.93;5.22;;;;;;;8.74;72.08;100558.78;5022122;28;20053;-64
2021/11/25 09:07:23;;;;;;;10.02;5.07;;;;;;;8.76;70.98;100553.06;5017054;28;20067;-64
2021/11/25 09:10:09;;;;;;;10.90;4.88;;;;;;;8.78;70.75;100559.00;5022015;28;20122;-64
2021/11/25 09:12:54;;;;;;;8.80;5.53;;;;;;;8.82;71.78;100557.28;5013194;28;20053;-64
2021/11/25 09:15:40;;;;;;;11.10;5.68;;;;;;;8.84;73.21;100547.69;5001987;28;20046;-64
2021/11/25 09:18:25;;;;;;;27.60;6.70;;;;;;;8.89;74.59;100550.28;5002159;28;20320;-64
2021/11/25 09:21:11;;;;;;;15.18;5.07;;;;;;;8.93;75.30;100554.00;5002024;28;20045;-64
2021/11/25 09:24:00;;;;;;;11.77;5.93;;;;;;;8.94;74.56;100547.47;5002086;28;20054;-64
2021/11/25 09:26:45;;;;;;;9.13;5.32;;;;;;;8.96;75.18;100549.88;4998829;28;20061;-64
2021/11/25 09:29:31;;;;;;;20.40;5.97;;;;;;;8.98;75.32;100543.03;5001906;28;20053;-64
2021/11/25 09:32:16;;;;;;;14.35;6.07;;;;;;;8.95;70.91;100542.84;5001843;28;20062;-64
2021/11/25 09:35:00;;;;;;;17.17;5.50;;;;;;;8.95;67.14;100534.69;5001815;28;20050;-64
2021/11/25 09:37:46;;;;;;;14.48;5.03;;;;;;;8.98;67.96;100536.81;4995994;28;20687;-64
2021/11/25 09:40:31;;;;;;;15.18;5.30;;;;;;;8.99;68.08;100538.38;5001764;28;20057;-64
2021/11/25 09:43:22;;;;;;;9.55;4.60;;;;;;;9.11;74.14;100535.13;5001601;28;20049;-64
2021/11/25 09:46:09;;;;;;;16.45;7.20;;;;;;;9.08;72.00;100531.13;5000205;28;20049;-64
2021/11/25 09:48:55;;;;;;;13.77;7.13;;;;;;;9.09;69.48;100530.03;5001513;28;20045;-64
2021/11/25 09:51:39;;;;;;;14.13;6.03;;;;;;;9.06;66.97;100522.50;5001360;28;20061;-64
2021/11/25 09:54:25;;;;;;;7.22;4.65;;;;;;;9.07;66.41;100521.41;4984613;28;20046;-64
2021/11/25 09:57:09;;;;;;;18.58;6.75;;;;;;;9.08;67.16;100520.28;4977637;28;20062;-64
2021/11/25 09:59:54;;;;;;;8.35;5.70;;;;;;;9.08;64.10;100504.00;4982336;28;20054;-64
2021/11/25 10:02:40;;;;;;;7.50;4.88;;;;;;;9.09;62.71;100500.19;5001319;28;20419;-64
2021/11/25 10:05:25;;;;;;;9.48;5.47;;;;;;;9.08;62.70;100501.31;5001176;28;20515;-64
2021/11/25 10:08:32;;;;;;;8.20;4.13;;;;;;;9.18;66.92;100503.75;5001172;28;20050;-64
2021/11/25 10:11:23;;;;;;;24.15;5.30;;;;;;;9.24;71.72;100499.81;5000696;28;20053;-64
2021/11/25 10:14:12;;;;;;;15.85;7.28;;;;;;;9.29;72.51;100498.88;5001025;28;20045;-63
2021/11/25 10:16:57;;;;;;;17.30;7.38;;;;;;;9.36;63.38;100493.78;4997316;28;20518;-64
2021/11/25 10:20:06;;;;;;;11.82;4.70;;;;;;;9.38;61.56;100486.94;4994532;28;20053;-64
2021/11/25 10:23:04;;;;;;;14.38;7.10;;;;;;;9.38;61.47;100481.50;5000954;28;20057;-64
2021/11/25 10:25:59;;;;;;;17.63;7.53;;;;;;;9.37;60.11;100473.69;5000202;28;20069;-64
2021/11/25 10:28:47;;;;;;;;;;;;;;;9.33;59.91;100472.72;5001326;28;20049;-64
2021/11/25 10:31:42;;;;;;;13.88;7.10;;;;;;;9.33;61.49;100462.66;5000770;28;19917;-64
2021/11/25 10:34:39;;;;;;;12.48;7.45;;;;;;;9.24;66.39;100459.09;5000799;28;20165;-63
2021/11/25 10:37:41;;;;;;;12.18;5.68;;;;;;;9.26;70.15;100451.44;4981792;28;20058;-64
2021/11/25 10:40:30;;;;;;;17.65;6.72;;;;;;;9.27;70.97;100453.03;5000583;28;20053;-64
2021/11/25 10:43:21;;;;;;;12.00;6.53;;;;;;;9.29;72.54;100448.13;5000484;28;20069;-64
2021/11/25 10:46:07;;;;;;;11.00;4.95;;;;;;;9.32;74.04;100438.53;4979668;28;20046;-64
2021/11/25 10:48:52;;;;;;;5.63;3.42;;;;;;;9.35;75.01;100432.47;4980997;28;20049;-64
2021/11/25 10:51:38;;;;;;;;;;;;;;;9.36;74.26;100426.75;4981413;28;20073;-64
2021/11/25 10:54:23;;;;;;;;;;;;;;;9.38;75.42;100427.25;4981245;28;19918;-64
2021/11/25 10:57:08;;;;;;;13.88;5.30;;;;;;;9.40;75.92;100418.75;4974684;28;19918;-64
2021/11/25 10:59:53;;;;;;;9.98;3.83;;;;;;;9.41;75.58;100420.38;4981130;28;20054;-64
2021/11/25 11:02:39;;;;;;;11.93;6.85;;;;;;;9.44;76.40;100407.00;4980640;28;20046;-64
2021/11/25 11:05:24;;;;;;;9.65;4.70;;;;;;;9.43;75.30;100396.44;4980682;28;20045;-64
2021/11/25 11:08:09;;;;;;;11.82;3.88;;;;;;;9.45;75.90;100394.19;4980578;28;20058;-64
2021/11/25 11:10:57;;;;;;;11.63;3.50;;;;;;;9.51;76.85;100379.38;4980602;28;20054;-64
2021/11/25 11:14:41;;;;;;;10.32;4.43;;;;;;;9.53;77.71;100385.28;4980457;28;20573;-64
2021/11/25 11:17:23;;;;;;;18.48;5.10;;;;;;;9.56;78.12;100378.41;4991604;28;20073;-64
2021/11/25 11:20:11;;;;;;;15.23;5.72;;;;;;;9.56;78.50;100372.97;4999783;28;20050;-64
2021/11/25 11:22:59;;;;;;;15.05;4.68;;;;;;;9.57;78.49;100369.97;4999108;28;20057;-64
2021/11/25 11:25:44;;;;;;;11.45;5.38;;;;;;;9.60;78.79;100361.16;4999649;28;20049;-64
2021/11/25 11:28:29;;;;;;;14.13;4.63;;;;;;;9.60;78.72;100361.16;4993259;28;20400;-64
2021/11/25 11:31:15;;;;;;;8.52;3.58;;;;;;;9.59;78.77;100354.16;4999665;28;20053;-63
2021/11/25 11:34:01;;;;;;;14.48;5.43;;;;;;;9.62;78.99;100347.28;4999539;28;20049;-64
2021/11/25 11:36:49;;;;;;;19.50;5.93;;;;;;;9.57;77.83;100345.53;4993499;28;20554;-64
2021/11/25 11:39:35;;;;;;;11.07;5.75;;;;;;;9.61;78.98;100351.13;4994466;28;20061;-63
2021/11/25 11:42:21;;;;;;;15.75;5.93;;;;;;;9.51;76.69;100344.09;4998922;28;20054;-64
2021/11/25 11:45:07;;;;;;;16.55;6.60;;;;;;;9.51;76.10;100340.56;4999442;28;20114;-64
2021/11/25 11:47:54;;;;;;;17.10;7.47;;;;;;;9.54;76.21;100337.25;4993211;28;20073;-64
2021/11/25 11:50:44;;;;;;;15.23;6.85;;;;;;;9.53;75.74;100330.19;4999312;28;20061;-64
2021/11/25 11:53:39;;;;;;;11.98;6.53;;;;;;;9.53;75.84;100324.78;4999250;28;20534;-64
2021/11/25 11:56:41;;;;;;;8.18;5.53;;;;;;;9.51;75.42;100330.50;4997306;28;20053;-64
2021/11/25 11:59:38;;;;;;;10.98;6.38;;;;;;;9.53;76.06;100319.34;4999521;28;20053;-64
2021/11/25 12:02:44;;;;;;;12.30;6.55;;;;;;;9.50;75.78;100320.00;4999233;28;20154;-63
2021/11/25 12:05:44;;;;;;;;;;;;;;;9.38;75.33;100318.69;4999857;28;20404;-63
2021/11/25 12:08:31;;;;;;;15.13;6.47;;;;;;;9.42;76.14;100308.00;4979719;28;19914;-64
2021/11/25 12:11:17;;;;;;;13.60;6.90;;;;;;;9.43;76.37;100304.97;4964996;28;20069;-64
2021/11/25 12:14:45;;;;;;;14.63;6.90;;;;;;;9.37;75.44;100305.44;4979596;28;20403;-64
2021/11/25 12:17:34;;;;;;;18.10;7.47;;;;;;;9.34;75.41;100306.88;4971605;28;20077;-64
2021/11/25 12:20:26;;;;;;;17.00;6.40;;;;;;;9.30;75.79;100296.94;4973127;28;20054;-64
2021/11/25 12:23:11;;;;;;;12.20;6.57;;;;;;;9.30;76.75;100295.03;4979666;28;20404;-64
2021/11/25 12:25:56;;;;;;;10.63;5.88;;;;;;;9.35;77.22;100289.47;4978583;28;20411;-63
2021/11/25 12:28:43;;;;;;;15.05;6.85;;;;;;;9.37;77.82;100281.81;4979533;28;20046;-64
2021/11/25 12:31:42;;;;;;;14.05;6.60;;;;;;;9.39;78.24;100273.38;4979559;28;20045;-64
2021/11/25 12:34:36;;;;;;;20.02;7.38;;;;;;;9.37;78.13;100264.72;4980135;28;20065;-64
2021/11/25 12:37:44;;;;;;;18.98;6.40;;;;;;;9.38;78.23;100267.13;4978542;28;20448;-64
2021/11/25 12:40:29;;;;;;;14.57;6.72;;;;;;;9.38;78.65;100259.00;5003846;23;20065;-62
2021/11/25 12:43:17;;;;;;;12.10;6.90;;;;;;;9.30;77.85;100257.06;4996438;28;20057;-62
2021/11/25 12:46:12;;;;;;;11.82;6.13;;;;;;;9.38;78.74;100255.47;4989844;28;20514;-62
2021/11/25 12:48:57;;;;;;;10.33;6.60;;;;;;;9.32;78.84;100257.53;4996814;28;20045;-62
2021/11/25 12:51:43;;;;;;;11.20;5.57;;;;;;;9.34;79.55;100252.63;4991351;28;20054;-62
2021/11/25 12:54:28;;;;;;;17.05;6.50;;;;;;;9.30;79.50;100245.41;4992742;28;20052;-62